Time;durP1;ratioP1;P1;durP2;ratioP2;P2;SDS_P1;SDS_P2;PMS_P1;PMS_P2;Temp;Humidity;BMP_temperature;BMP_pressure;BME280_temperature;BME280_humidity;BME280_pressure;Samples;Min_cycle;Max_cycle;Signal;HPM_P1;HPM_P2
2021/12/08 00:02:00;;;;;;;8.38;2.95;;;;;;;4.59;94.08;99048.53;5038101;28;20127;-78
2021/12/08 00:04:25;;;;;;;11.90;3.00;;;;;;;4.63;94.39;99039.34;5029858;28;20447;-78
2021/12/08 00:06:50;;;;;;;9.60;2.60;;;;;;;4.63;94.76;99026.03;5041435;28;20494;-78
2021/12/08 00:10:04;;;;;;;13.05;2.63;;;;;;;4.65;94.72;99026.75;5041144;28;20071;-78
2021/12/08 00:14:45;;;;;;;7.88;2.40;;;;;;;4.72;94.71;99012.00;5045630;28;20044;-79
2021/12/08 00:17:11;;;;;;;11.52;2.60;;;;;;;4.75;94.88;99011.75;5039904;28;20029;-78
2021/12/08 00:19:36;;;;;;;7.70;2.67;;;;;;;4.76;94.86;99013.47;5041138;28;20125;-78
2021/12/08 00:22:02;;;;;;;12.68;2.60;;;;;;;4.79;94.61;99017.69;5033371;28;20492;-78
2021/12/08 00:24:27;;;;;;;9.27;2.75;;;;;;;4.82;94.61;99028.94;5027949;28;20112;-78
2021/12/08 00:26:54;;;;;;;9.60;2.90;;;;;;;4.84;95.11;99036.81;5035128;28;20083;-78
2021/12/08 00:29:20;;;;;;;8.23;1.90;;;;;;;4.85;94.94;99030.53;5043378;28;20024;-78
2021/12/08 00:31:47;;;;;;;10.02;2.67;;;;;;;4.88;94.94;99032.94;5049474;28;20109;-78
2021/12/08 00:34:12;;;;;;;6.13;2.08;;;;;;;4.88;95.25;99027.63;5028449;28;20033;-78
2021/12/08 00:36:44;;;;;;;6.60;2.25;;;;;;;4.90;94.81;99023.88;5033265;28;20168;-79
2021/12/08 00:39:11;;;;;;;8.50;2.38;;;;;;;4.93;95.18;99019.25;5030920;28;20510;-79
2021/12/08 00:41:37;;;;;;;5.68;2.30;;;;;;;4.93;95.17;99030.75;5041523;28;20029;-79
2021/12/08 00:44:03;;;;;;;9.50;2.33;;;;;;;4.96;95.19;99030.50;5042083;28;20091;-79
2021/12/08 00:46:28;;;;;;;5.18;2.05;;;;;;;4.96;95.22;99035.81;5047620;28;20346;-78
2021/12/08 00:48:54;;;;;;;8.45;2.42;;;;;;;4.98;95.18;99038.38;5043839;28;20032;-79
2021/12/08 00:51:19;;;;;;;8.75;2.63;;;;;;;4.98;95.20;99028.59;5038321;28;20108;-79
2021/12/08 00:53:46;;;;;;;6.10;2.30;;;;;;;5.00;95.01;99025.78;5042123;28;20043;-78
2021/12/08 00:56:13;;;;;;;8.30;2.50;;;;;;;5.01;95.36;99022.19;5042028;28;20500;-78
2021/12/08 00:58:39;;;;;;;4.53;1.80;;;;;;;5.03;95.27;99036.19;5045011;28;20353;-78
2021/12/08 01:01:08;;;;;;;11.05;2.25;;;;;;;5.04;95.15;99054.72;5050063;28;20025;-78
2021/12/08 01:03:34;;;;;;;6.13;2.17;;;;;;;5.06;95.48;99052.75;5034168;28;20036;-78
2021/12/08 01:06:00;;;;;;;8.18;2.33;;;;;;;5.07;95.39;99054.47;5031397;28;20433;-78
2021/12/08 01:08:28;;;;;;;6.82;2.42;;;;;;;5.10;95.26;99071.19;5038817;28;20041;-79
2021/12/08 01:10:56;;;;;;;6.57;2.08;;;;;;;5.12;95.12;99063.91;5046830;28;20032;-79
2021/12/08 01:13:24;;;;;;;6.82;2.15;;;;;;;5.14;94.99;99062.81;5041318;28;20180;-79
2021/12/08 01:15:54;;;;;;;7.28;2.20;;;;;;;5.17;94.93;99070.56;5033976;28;20049;-79
2021/12/08 01:18:20;;;;;;;7.47;2.50;;;;;;;5.20;94.94;99075.66;5031745;28;20052;-78
2021/12/08 01:20:47;;;;;;;7.47;2.53;;;;;;;5.20;94.97;99070.31;5045321;28;20116;-78
2021/12/08 01:23:14;;;;;;;9.15;2.25;;;;;;;5.21;94.67;99066.69;5046928;28;20472;-79
2021/12/08 01:25:40;;;;;;;7.75;2.38;;;;;;;5.24;94.61;99076.25;5043231;28;20164;-79
2021/12/08 01:28:06;;;;;;;6.68;2.50;;;;;;;5.24;94.68;99077.09;5037939;28;20116;-79
2021/12/08 01:30:32;;;;;;;4.97;2.08;;;;;;;5.26;94.82;99082.31;5064074;28;20032;-79
2021/12/08 01:32:57;;;;;;;8.45;2.47;;;;;;;5.28;94.78;99076.84;5045684;28;20021;-79
2021/12/08 01:35:24;;;;;;;8.02;2.60;;;;;;;5.28;94.85;99084.84;5034110;28;20499;-79
2021/12/08 01:37:49;;;;;;;6.60;2.10;;;;;;;5.29;94.68;99083.88;5031845;28;20037;-79
2021/12/08 01:40:17;;;;;;;4.68;2.13;;;;;;;5.29;95.05;99090.06;5031354;28;20040;-79
2021/12/08 01:42:47;;;;;;;8.25;2.38;;;;;;;5.31;95.00;99084.59;5041529;28;20584;-79
2021/12/08 01:48:03;;;;;;;6.07;2.17;;;;;;;5.30;95.18;99096.22;5033643;28;20043;-79
2021/12/08 01:50:28;;;;;;;9.77;2.95;;;;;;;5.31;95.28;99097.91;5038507;28;20069;-79
2021/12/08 01:52:54;;;;;;;9.75;2.60;;;;;;;5.31;95.14;99098.75;5031180;28;20056;-79
2021/12/08 01:55:19;;;;;;;6.53;2.35;;;;;;;5.32;95.18;99097.78;5033498;28;20025;-79
2021/12/08 01:57:45;;;;;;;8.45;2.50;;;;;;;5.34;94.81;99095.00;5034487;28;20056;-79
2021/12/08 02:00:16;;;;;;;9.95;2.60;;;;;;;5.34;95.12;99100.34;5055649;28;20025;-78
2021/12/08 02:02:43;;;;;;;8.65;2.22;;;;;;;5.36;94.77;99101.03;5041842;28;20036;-78
2021/12/08 02:05:09;;;;;;;6.97;2.70;;;;;;;5.38;94.28;99105.28;5051626;28;20390;-77
2021/12/08 02:07:35;;;;;;;12.00;2.83;;;;;;;5.39;94.25;99103.50;5042167;28;20641;-77
2021/12/08 02:10:02;;;;;;;8.82;3.08;;;;;;;5.40;94.22;99113.16;5039190;28;20059;-77
2021/12/08 02:12:30;;;;;;;5.80;2.00;;;;;;;5.40;93.99;99113.16;5040256;28;20645;-77
2021/12/08 02:14:58;;;;;;;8.30;2.03;;;;;;;5.43;93.46;99120.91;5040939;28;20028;-77
2021/12/08 02:17:23;;;;;;;7.45;2.63;;;;;;;5.44;93.55;99125.28;5051135;28;20059;-77
2021/12/08 02:19:49;;;;;;;9.32;2.58;;;;;;;5.45;93.69;99129.63;5046808;28;20076;-77
2021/12/08 02:22:15;;;;;;;11.25;2.90;;;;;;;5.46;93.03;99133.13;5031835;28;20064;-77
2021/12/08 02:24:40;;;;;;;13.77;2.83;;;;;;;5.46;92.74;99143.81;5032869;28;20037;-77
2021/12/08 02:27:06;;;;;;;12.45;2.58;;;;;;;5.45;92.86;99142.97;5047716;28;20024;-77
2021/12/08 02:29:41;;;;;;;11.50;2.78;;;;;;;5.46;92.24;99144.66;5051944;28;20159;-77
2021/12/08 02:46:43;;;;;;;10.82;2.88;;;;;;;5.42;91.91;99137.88;5042360;28;20067;-77
2021/12/08 02:48:38;;;;;;;11.05;2.30;;;;;;;5.32;91.03;99140.41;5041066;28;20114;-77
2021/12/08 02:51:04;;;;;;;7.38;2.17;;;;;;;5.29;91.02;99156.66;5029671;28;20037;-77
2021/12/08 02:53:31;;;;;;;13.02;2.40;;;;;;;5.28;91.34;99159.44;5031273;28;20053;-77
2021/12/08 02:55:57;;;;;;;6.07;2.15;;;;;;;5.27;91.73;99161.25;5050628;28;20025;-77
2021/12/08 02:58:22;;;;;;;7.72;2.05;;;;;;;5.27;91.85;99157.72;5036565;28;20055;-77
2021/12/08 03:00:52;;;;;;;6.82;2.25;;;;;;;5.29;91.90;99158.47;5041245;28;20024;-77
2021/12/08 03:03:18;;;;;;;11.38;2.63;;;;;;;5.28;91.81;99157.59;5034106;28;20048;-77
2021/12/08 03:05:43;;;;;;;9.48;2.40;;;;;;;5.30;92.17;99155.69;5045358;28;20422;-77
2021/12/08 03:08:09;;;;;;;9.43;2.67;;;;;;;5.29;92.35;99156.66;5042047;28;20025;-77
2021/12/08 03:10:39;;;;;;;13.00;2.72;;;;;;;5.30;92.13;99149.50;5040591;28;20091;-77
2021/12/08 03:13:05;;;;;;;9.83;2.90;;;;;;;5.32;92.48;99156.41;5036268;28;20017;-77
2021/12/08 03:15:30;;;;;;;7.30;2.50;;;;;;;5.32;92.40;99161.72;5049207;28;20430;-77
2021/12/08 03:17:56;;;;;;;8.45;2.40;;;;;;;5.33;92.22;99165.22;5043705;28;20017;-77
2021/12/08 03:20:36;;;;;;;11.50;2.80;;;;;;;5.33;91.62;99159.91;5046298;28;20047;-77
2021/12/08 03:23:03;;;;;;;5.00;2.13;;;;;;;5.33;91.05;99170.56;5049426;28;20048;-77
2021/12/08 03:25:34;;;;;;;9.30;2.80;;;;;;;5.35;90.69;99179.28;5042663;28;20029;-77
2021/12/08 03:28:38;;;;;;;9.55;2.83;;;;;;;5.36;90.19;99180.97;5038339;28;20052;-76
2021/12/08 03:30:59;;;;;;;10.35;2.30;;;;;;;5.36;89.32;99183.63;5053282;28;20052;-76
2021/12/08 03:33:24;;;;;;;14.73;3.25;;;;;;;5.35;88.81;99193.44;5039728;28;20090;-77
2021/12/08 03:35:50;;;;;;;11.57;2.85;;;;;;;5.34;88.38;99181.09;5048294;28;20343;-77
2021/12/08 03:38:19;;;;;;;13.80;2.60;;;;;;;5.37;88.01;99185.34;5033237;28;20029;-77
2021/12/08 03:40:45;;;;;;;12.57;3.00;;;;;;;5.35;88.10;99181.97;5030641;28;20078;-77
2021/12/08 03:43:12;;;;;;;7.68;2.13;;;;;;;5.34;88.17;99182.91;5031859;28;20029;-77
2021/12/08 03:45:43;;;;;;;13.48;2.60;;;;;;;5.29;88.35;99174.44;5035685;28;20117;-77
2021/12/08 03:48:11;;;;;;;15.00;2.50;;;;;;;5.25;88.27;99169.34;5045973;28;20405;-77
2021/12/08 03:50:39;;;;;;;11.02;2.35;;;;;;;5.23;87.72;99181.94;5049005;28;20067;-77
2021/12/08 03:53:06;;;;;;;12.93;2.53;;;;;;;5.18;87.82;99178.81;5032487;28;20025;-77
2021/12/08 03:55:31;;;;;;;14.57;2.92;;;;;;;5.17;87.39;99185.09;5029076;28;20052;-77
2021/12/08 03:57:57;;;;;;;11.13;2.25;;;;;;;5.14;86.56;99182.66;5042200;28;20033;-77
2021/12/08 04:00:25;;;;;;;11.80;2.67;;;;;;;5.12;86.85;99199.72;5032521;28;20097;-77
2021/12/08 04:02:51;;;;;;;10.80;2.30;;;;;;;5.09;86.10;99190.16;5029260;28;20025;-77
2021/12/08 04:05:31;;;;;;;7.03;1.90;;;;;;;5.04;86.63;99192.34;5040379;28;20032;-76
2021/12/08 04:08:02;;;;;;;10.93;2.50;;;;;;;4.99;86.63;99203.34;5044054;28;20342;-76
2021/12/08 04:10:28;;;;;;;9.90;1.88;;;;;;;4.96;86.65;99208.03;5029569;28;20321;-77
2021/12/08 04:12:54;;;;;;;14.07;3.13;;;;;;;4.90;86.79;99196.91;5039790;28;20488;-77
2021/12/08 04:15:21;;;;;;;15.18;2.85;;;;;;;4.88;86.65;99198.81;5028249;28;20390;-77
2021/12/08 04:17:53;;;;;;;9.63;2.38;;;;;;;4.83;86.97;99201.00;5031462;28;20040;-77
2021/12/08 04:20:26;;;;;;;6.70;2.45;;;;;;;4.80;86.80;99203.03;5044420;28;20627;-77
2021/12/08 04:22:54;;;;;;;15.05;2.40;;;;;;;4.77;87.04;99216.56;5029845;28;20136;-77
2021/12/08 04:25:29;;;;;;;8.90;2.13;;;;;;;4.72;87.18;99207.13;5038901;28;20116;-77
2021/12/08 04:27:58;;;;;;;5.10;2.03;;;;;;;4.69;87.32;99214.50;5033261;28;20053;-77
2021/12/08 04:30:32;;;;;;;13.60;2.95;;;;;;;4.66;87.79;99220.88;5037844;28;20116;-77
2021/12/08 04:32:58;;;;;;;8.98;2.20;;;;;;;4.64;88.06;99221.97;5039090;28;20393;-77
2021/12/08 04:35:24;;;;;;;10.88;2.97;;;;;;;4.62;87.40;99218.56;5029869;28;20033;-77
2021/12/08 04:37:54;;;;;;;14.55;2.72;;;;;;;4.59;87.20;99218.81;5040445;28;20021;-77
2021/12/08 04:40:35;;;;;;;8.95;2.40;;;;;;;4.59;87.05;99224.13;5038213;28;20384;-76
2021/12/08 04:43:58;;;;;;;8.63;2.17;;;;;;;4.57;86.72;99218.06;5041372;28;20047;-77
2021/12/08 04:46:16;;;;;;;8.43;2.50;;;;;;;4.55;86.05;99205.75;5050344;28;20051;-77
2021/12/08 04:49:03;;;;;;;12.20;2.80;;;;;;;4.54;86.17;99206.69;5040486;28;20056;-77
2021/12/08 05:04:40;;;;;;;6.32;2.30;;;;;;;4.46;85.07;99226.84;5035683;28;20486;-77
2021/12/08 05:07:28;;;;;;;12.10;2.47;;;;;;;4.46;85.75;99237.50;5043560;28;20022;-77
2021/12/08 05:09:55;;;;;;;9.05;2.30;;;;;;;4.47;84.99;99242.69;5036580;28;20132;-77
2021/12/08 05:12:24;;;;;;;11.00;2.40;;;;;;;4.48;85.27;99232.88;5045170;28;20033;-77
2021/12/08 05:15:16;;;;;;;10.48;2.63;;;;;;;4.51;85.70;99245.97;5050467;28;20029;-77
2021/12/08 05:17:50;;;;;;;5.78;2.00;;;;;;;4.53;85.38;99236.91;5033844;28;20429;-77
2021/12/08 05:20:31;;;;;;;11.60;2.63;;;;;;;4.57;85.27;99242.00;5040572;28;20744;-77
2021/12/08 05:23:08;;;;;;;8.52;2.05;;;;;;;4.58;85.01;99239.22;5038441;28;20021;-77
2021/12/08 05:25:36;;;;;;;12.23;2.28;;;;;;;4.59;85.21;99246.25;5045326;28;20036;-77
2021/12/08 05:28:07;;;;;;;9.63;2.70;;;;;;;4.59;85.47;99248.06;5034050;28;20030;-77
2021/12/08 05:30:39;;;;;;;11.30;2.13;;;;;;;4.57;85.38;99252.66;5037704;28;20132;-77
2021/12/08 05:33:06;;;;;;;8.20;2.28;;;;;;;4.55;84.94;99250.09;5033133;28;20025;-77
2021/12/08 05:35:32;;;;;;;8.75;1.90;;;;;;;4.54;85.24;99249.25;5049659;28;20387;-77
2021/12/08 05:37:58;;;;;;;10.23;2.28;;;;;;;4.54;84.39;99253.75;5045660;28;20029;-77
2021/12/08 05:40:37;;;;;;;9.23;2.40;;;;;;;4.54;84.82;99265.22;5043498;28;20124;-77
2021/12/08 05:43:05;;;;;;;8.43;2.35;;;;;;;4.58;84.84;99278.31;5034224;28;20025;-77
2021/12/08 05:45:30;;;;;;;9.38;2.70;;;;;;;4.59;84.43;99280.00;5036986;28;20034;-77
2021/12/08 05:47:57;;;;;;;11.73;2.67;;;;;;;4.57;85.23;99268.59;5038507;28;20075;-77
2021/12/08 05:50:32;;;;;;;11.32;2.53;;;;;;;4.54;85.25;99275.88;5037881;28;20033;-77
2021/12/08 05:52:57;;;;;;;9.82;2.67;;;;;;;4.55;84.66;99280.22;5041312;28;20020;-76
2021/12/08 05:55:23;;;;;;;13.23;2.80;;;;;;;4.54;85.03;99283.84;5030739;28;20040;-76
2021/12/08 05:57:49;;;;;;;15.80;3.05;;;;;;;4.52;84.95;99271.63;5034456;28;20055;-76
2021/12/08 06:00:26;;;;;;;11.07;2.78;;;;;;;4.49;85.02;99270.03;5048213;28;20018;-76
2021/12/08 06:02:53;;;;;;;16.88;2.67;;;;;;;4.46;85.05;99280.88;5043747;28;20155;-76
2021/12/08 06:05:19;;;;;;;6.35;1.92;;;;;;;4.46;85.22;99298.66;5047744;28;20475;-77
2021/12/08 06:07:46;;;;;;;10.95;2.60;;;;;;;4.45;85.08;99281.00;5033507;28;20390;-77
2021/12/08 06:10:17;;;;;;;13.73;2.20;;;;;;;4.44;84.51;99290.81;5037502;28;20045;-76
2021/12/08 06:12:43;;;;;;;13.32;2.53;;;;;;;4.46;84.52;99294.19;5035136;28;20490;-76
2021/12/08 06:15:10;;;;;;;17.25;2.85;;;;;;;4.44;84.90;99295.28;5032025;28;20098;-76
2021/12/08 06:17:35;;;;;;;10.55;2.55;;;;;;;4.43;84.83;99299.75;5032709;28;20033;-76
2021/12/08 06:20:06;;;;;;;15.55;3.10;;;;;;;4.41;84.71;99298.16;5033839;28;20048;-76
2021/12/08 06:22:31;;;;;;;15.38;2.78;;;;;;;4.38;85.09;99307.22;5032062;28;20052;-76
2021/12/08 06:24:56;;;;;;;12.75;2.65;;;;;;;4.36;84.99;99303.81;5030178;28;20041;-76
2021/12/08 06:27:22;;;;;;;13.15;2.88;;;;;;;4.34;84.89;99311.06;5035675;28;20033;-76
2021/12/08 06:29:49;;;;;;;10.98;2.92;;;;;;;4.31;85.11;99314.78;5047271;28;20057;-76
2021/12/08 06:32:16;;;;;;;15.43;2.38;;;;;;;4.32;84.80;99315.63;5039021;28;20036;-77
2021/12/08 06:34:44;;;;;;;16.27;2.90;;;;;;;4.32;84.00;99312.97;5034883;28;20025;-77
2021/12/08 06:37:14;;;;;;;15.80;2.67;;;;;;;4.32;84.25;99308.50;5047452;28;20029;-77
2021/12/08 06:39:46;;;;;;;14.65;2.80;;;;;;;4.31;83.95;99306.81;5034250;28;20201;-77
2021/12/08 06:42:18;;;;;;;15.43;2.42;;;;;;;4.29;84.17;99315.84;5039228;28;20021;-77
2021/12/08 06:44:46;;;;;;;16.90;4.07;;;;;;;4.26;84.02;99311.63;5035204;28;20100;-77
2021/12/08 06:47:19;;;;;;;12.98;2.83;;;;;;;4.23;83.63;99298.50;5042847;28;20040;-77
2021/12/08 06:49:47;;;;;;;11.93;2.55;;;;;;;4.18;83.88;99304.16;5047442;28;20032;-77
2021/12/08 06:52:17;;;;;;;10.55;2.55;;;;;;;4.15;83.71;99306.22;5040611;28;20020;-77
2021/12/08 06:55:00;;;;;;;22.10;3.58;;;;;;;4.16;83.62;99316.72;5042132;28;20068;-77
2021/12/08 06:57:53;;;;;;;14.85;2.70;;;;;;;4.14;84.05;99318.66;5042448;28;20318;-77
2021/12/08 07:00:46;;;;;;;11.85;2.72;;;;;;;4.10;83.97;99319.84;5043138;28;20508;-77
2021/12/08 07:08:22;;;;;;;14.32;3.42;;;;;;;4.03;84.25;99323.88;5031159;28;20116;-77
2021/12/08 07:10:52;;;;;;;10.13;2.47;;;;;;;4.00;84.25;99340.91;5042621;28;20029;-77
2021/12/08 07:13:22;;;;;;;13.80;3.60;;;;;;;3.99;84.04;99348.97;5032068;28;20025;-77
2021/12/08 07:15:55;;;;;;;11.57;2.58;;;;;;;3.95;84.16;99353.69;5043887;28;20029;-77
2021/12/08 07:18:27;;;;;;;17.38;3.03;;;;;;;3.93;84.32;99360.06;5038644;28;20025;-77
2021/12/08 07:20:56;;;;;;;12.13;2.40;;;;;;;3.89;84.17;99354.06;5042356;28;20500;-78
2021/12/08 07:23:24;;;;;;;14.02;2.90;;;;;;;3.89;83.98;99363.88;5031688;28;20092;-77
2021/12/08 07:25:52;;;;;;;9.43;2.60;;;;;;;3.85;84.33;99377.38;5044674;28;20032;-77
2021/12/08 07:28:19;;;;;;;9.25;2.58;;;;;;;3.82;84.49;99377.59;5032697;28;20087;-77
2021/12/08 07:30:52;;;;;;;17.48;2.88;;;;;;;3.80;84.63;99381.31;5039369;28;20021;-77
2021/12/08 07:33:17;;;;;;;15.27;2.80;;;;;;;3.78;84.07;99383.22;5039042;28;20132;-77
2021/12/08 07:35:47;;;;;;;9.48;2.53;;;;;;;3.77;83.97;99387.66;5034429;28;20113;-77
2021/12/08 07:38:17;;;;;;;7.38;2.28;;;;;;;3.77;84.42;99389.50;5040672;28;20112;-77
2021/12/08 07:40:50;;;;;;;12.18;3.00;;;;;;;3.78;84.50;99396.50;5041771;28;20075;-77
2021/12/08 07:43:20;;;;;;;7.13;1.83;;;;;;;3.80;83.95;99398.09;5036589;28;20029;-77
2021/12/08 07:45:50;;;;;;;13.27;2.47;;;;;;;3.82;84.36;99405.94;5036901;28;20514;-77
2021/12/08 07:48:20;;;;;;;14.18;2.70;;;;;;;3.87;84.18;99403.00;5040784;28;20029;-77
2021/12/08 07:50:53;;;;;;;14.82;3.03;;;;;;;3.90;84.35;99402.78;5045793;28;20116;-77
2021/12/08 07:53:21;;;;;;;17.08;2.78;;;;;;;3.92;84.48;99411.50;5028396;28;20493;-77
2021/12/08 07:55:51;;;;;;;11.55;3.00;;;;;;;3.94;84.02;99409.56;5028445;28;20026;-77
2021/12/08 07:58:20;;;;;;;14.88;2.55;;;;;;;3.96;83.63;99424.47;5029843;28;20061;-77
2021/12/08 08:00:53;;;;;;;12.98;2.70;;;;;;;3.99;83.61;99413.63;5059416;28;20260;-77
2021/12/08 08:03:19;;;;;;;11.80;2.67;;;;;;;3.99;83.43;99412.78;5046333;28;20051;-77
2021/12/08 08:05:47;;;;;;;13.98;3.15;;;;;;;4.01;82.87;99398.44;5049554;28;20061;-77
2021/12/08 08:08:14;;;;;;;5.90;2.33;;;;;;;4.05;82.67;99417.66;5049814;28;20024;-77
2021/12/08 08:10:44;;;;;;;18.73;2.67;;;;;;;4.08;82.60;99421.94;5039975;28;20164;-77
2021/12/08 08:13:12;;;;;;;9.60;2.35;;;;;;;4.12;82.63;99407.47;5044569;28;20039;-77
2021/12/08 08:15:43;;;;;;;8.30;2.30;;;;;;;4.13;82.30;99411.81;5043340;28;20029;-77
2021/12/08 08:18:12;;;;;;;17.20;3.30;;;;;;;4.16;82.44;99430.22;5045064;28;20448;-77
2021/12/08 08:20:42;;;;;;;13.40;2.83;;;;;;;4.19;81.70;99430.00;5044704;28;20037;-78
2021/12/08 08:23:08;;;;;;;10.20;2.65;;;;;;;4.21;81.63;99422.78;5047656;28;20029;-77
2021/12/08 08:25:41;;;;;;;10.82;2.55;;;;;;;4.23;81.94;99423.50;5036035;28;20075;-77
2021/12/08 08:28:08;;;;;;;9.15;2.67;;;;;;;4.24;81.26;99424.38;5040781;28;20025;-78
2021/12/08 08:30:55;;;;;;;10.77;2.38;;;;;;;4.24;81.23;99421.72;5048361;28;20250;-77
2021/12/08 08:33:22;;;;;;;11.40;2.58;;;;;;;4.26;80.97;99415.34;5048577;28;20024;-76
2021/12/08 08:35:52;;;;;;;7.68;2.55;;;;;;;4.29;81.40;99407.13;5034523;28;20208;-77
2021/12/08 08:38:27;;;;;;;7.63;2.10;;;;;;;4.31;80.92;99397.22;5034940;28;20053;-77
2021/12/08 08:40:57;;;;;;;10.30;2.65;;;;;;;4.34;81.12;99401.47;5037084;28;20085;-77
2021/12/08 08:43:24;;;;;;;15.13;2.63;;;;;;;4.36;80.77;99388.91;5046954;28;20043;-77
2021/12/08 08:45:55;;;;;;;16.35;3.33;;;;;;;4.37;80.72;99395.94;5049266;28;20033;-77
2021/12/08 08:48:31;;;;;;;7.05;2.28;;;;;;;4.37;80.93;99387.97;5047117;28;20123;-77
2021/12/08 08:51:00;;;;;;;17.30;3.90;;;;;;;4.38;80.91;99392.34;5048195;28;20029;-77
2021/12/08 08:53:31;;;;;;;15.77;2.83;;;;;;;4.36;81.17;99388.91;5044774;28;20511;-77
2021/12/08 08:56:07;;;;;;;11.95;2.70;;;;;;;4.35;80.36;99393.41;5046232;28;20388;-77
2021/12/08 08:58:35;;;;;;;9.55;2.92;;;;;;;4.32;80.07;99398.06;5044165;28;20028;-77
2021/12/08 09:01:27;;;;;;;15.35;3.65;;;;;;;4.35;81.09;99411.19;5045893;28;20832;-77
2021/12/08 09:03:58;;;;;;;13.80;2.88;;;;;;;4.32;80.46;99401.59;5047117;28;20047;-77
2021/12/08 09:06:33;;;;;;;13.77;3.20;;;;;;;4.31;80.92;99401.72;5049674;28;20074;-77
2021/12/08 09:09:03;;;;;;;12.32;2.60;;;;;;;4.32;79.85;99406.03;5049317;28;20057;-77
2021/12/08 09:11:32;;;;;;;;;;;;;;;4.36;81.53;99410.19;5052501;28;20025;-77
2021/12/08 09:14:00;;;;;;;13.02;3.15;;;;;;;4.32;80.40;99406.03;5048645;28;19913;-76
2021/12/08 09:16:36;;;;;;;12.45;2.22;;;;;;;4.33;80.24;99410.41;5049728;28;20033;-77
2021/12/08 09:19:11;;;;;;;10.35;2.60;;;;;;;4.33;80.47;99410.41;5050484;28;20139;-77
2021/12/08 09:22:00;;;;;;;7.93;2.58;;;;;;;4.35;80.76;99420.00;5047934;28;20021;-77
2021/12/08 09:25:01;;;;;;;10.32;2.95;;;;;;;4.37;80.25;99417.22;5066725;28;20032;-77
2021/12/08 09:27:34;;;;;;;6.63;2.25;;;;;;;4.36;80.31;99427.03;5048726;28;20116;-76
2021/12/08 09:30:11;;;;;;;8.07;2.20;;;;;;;4.36;80.33;99432.34;5055966;28;20036;-76
2021/12/08 09:32:55;;;;;;;10.32;2.33;;;;;;;4.42;79.97;99436.34;5055292;28;20032;-77
2021/12/08 09:35:48;;;;;;;10.93;2.72;;;;;;;4.43;79.90;99443.38;5043734;28;20040;-77
2021/12/08 09:38:46;;;;;;;9.88;2.65;;;;;;;4.53;80.50;99447.09;5048250;28;20089;-77
2021/12/08 09:41:16;;;;;;;8.45;2.28;;;;;;;4.58;78.93;99446.78;5045519;28;20024;-77
2021/12/08 09:43:52;;;;;;;8.93;2.38;;;;;;;4.65;79.31;99444.53;5048655;28;20029;-77
2021/12/08 09:46:22;;;;;;;11.13;2.30;;;;;;;4.69;79.12;99436.22;5050074;28;20552;-76
2021/12/08 09:48:49;;;;;;;5.63;2.00;;;;;;;4.74;79.10;99446.53;5047938;28;20520;-76
2021/12/08 09:51:19;;;;;;;13.88;2.60;;;;;;;4.78;78.56;99437.38;5048103;28;20107;-77
2021/12/08 09:53:46;;;;;;;8.93;2.72;;;;;;;4.79;79.37;99433.75;5048906;28;20036;-77
2021/12/08 09:56:12;;;;;;;9.00;1.88;;;;;;;4.81;78.62;99431.81;5050406;28;20481;-76
2021/12/08 09:58:39;;;;;;;8.40;2.20;;;;;;;4.84;78.66;99431.59;5046697;28;20025;-76
2021/12/08 10:01:06;;;;;;;12.23;2.38;;;;;;;4.85;77.73;99427.16;5044426;28;20021;-76
2021/12/08 10:03:33;;;;;;;7.60;1.80;;;;;;;4.86;78.22;99429.69;5047840;28;20037;-76
2021/12/08 10:06:00;;;;;;;10.35;2.20;;;;;;;4.87;78.71;99420.72;5049833;28;20483;-76
2021/12/08 10:08:25;;;;;;;10.70;2.38;;;;;;;4.92;78.70;99416.88;5049001;28;20029;-76
2021/12/08 10:10:51;;;;;;;7.47;2.25;;;;;;;4.95;77.92;99420.19;5045346;28;20543;-77
2021/12/08 10:13:17;;;;;;;13.25;2.72;;;;;;;4.95;77.79;99419.31;5047754;28;20036;-76
2021/12/08 10:15:43;;;;;;;7.30;2.17;;;;;;;4.96;77.74;99421.03;5047272;28;20029;-77
2021/12/08 10:18:09;;;;;;;10.35;2.53;;;;;;;4.98;78.02;99406.66;5046426;28;20086;-77
2021/12/08 10:20:41;;;;;;;9.75;2.17;;;;;;;5.00;77.76;99404.72;5048148;28;20037;-77
2021/12/08 10:23:38;;;;;;;15.00;2.60;;;;;;;5.04;77.71;99410.66;5047132;28;20044;-77
2021/12/08 10:26:07;;;;;;;13.35;2.50;;;;;;;5.05;77.29;99401.69;5046210;28;20037;-77
2021/12/08 10:28:34;;;;;;;11.82;2.63;;;;;;;5.06;77.89;99396.25;5046042;28;20025;-77
2021/12/08 10:31:03;;;;;;;13.90;2.65;;;;;;;5.10;77.64;99398.72;5046827;28;20017;-77
2021/12/08 10:33:39;;;;;;;9.82;2.28;;;;;;;5.11;77.48;99389.75;5048031;28;20496;-77
2021/12/08 10:36:19;;;;;;;7.88;2.33;;;;;;;5.11;77.85;99390.63;5047952;28;20086;-77
2021/12/08 10:38:44;;;;;;;10.95;2.88;;;;;;;5.14;76.95;99384.19;5049612;28;20028;-77
2021/12/08 10:41:10;;;;;;;7.53;2.03;;;;;;;5.16;76.42;99385.78;5046719;28;20056;-77
2021/12/08 10:43:35;;;;;;;10.48;2.47;;;;;;;5.17;77.13;99379.50;5045940;28;20043;-77
2021/12/08 10:46:07;;;;;;;10.15;2.47;;;;;;;5.19;77.32;99376.72;5047551;28;20166;-77
2021/12/08 10:48:37;;;;;;;12.52;2.63;;;;;;;5.20;77.38;99376.59;5047513;28;20362;-77
2021/12/08 10:56:42;;;;;;;13.55;2.92;;;;;;;5.17;77.10;99373.31;5049073;28;20412;-77
2021/12/08 10:59:07;;;;;;;14.63;2.72;;;;;;;5.16;76.86;99380.47;5052176;28;20112;-77
2021/12/08 11:01:34;;;;;;;13.23;2.92;;;;;;;5.21;76.83;99393.44;5057158;28;20249;-77
2021/12/08 11:04:06;;;;;;;11.07;2.60;;;;;;;5.20;77.39;99395.25;5046373;28;20064;-77
2021/12/08 11:06:33;;;;;;;10.40;2.47;;;;;;;5.27;77.45;99406.31;5048644;28;20033;-77
2021/12/08 11:08:59;;;;;;;9.30;2.72;;;;;;;5.31;77.84;99417.56;5046930;28;20033;-77
2021/12/08 11:11:32;;;;;;;10.65;2.40;;;;;;;5.35;76.44;99416.38;5044060;28;20131;-77
2021/12/08 11:14:05;;;;;;;7.90;2.38;;;;;;;5.39;77.14;99420.53;5043855;28;20043;-77
2021/12/08 11:16:33;;;;;;;12.80;2.78;;;;;;;5.41;76.27;99437.25;5042914;28;20111;-77
2021/12/08 11:19:31;;;;;;;7.95;2.58;;;;;;;5.43;76.38;99428.19;5045194;28;20064;-77
2021/12/08 11:22:03;;;;;;;11.82;2.65;;;;;;;5.51;76.21;99429.41;5039617;28;20052;-77
2021/12/08 11:24:45;;;;;;;11.02;2.50;;;;;;;5.61;76.64;99438.41;5045867;28;20064;-77
2021/12/08 11:27:28;;;;;;;9.30;2.45;;;;;;;5.70;76.99;99431.53;5046960;28;20225;-76
2021/12/08 11:29:53;;;;;;;9.23;2.38;;;;;;;5.76;76.96;99425.75;5057364;28;20036;-76
2021/12/08 11:32:22;;;;;;;8.10;2.20;;;;;;;5.81;76.86;99436.03;5045611;28;20025;-76
2021/12/08 11:34:48;;;;;;;14.77;2.55;;;;;;;5.84;76.70;99450.00;5043998;28;20123;-76
2021/12/08 11:37:20;;;;;;;15.55;2.65;;;;;;;5.86;76.42;99449.91;5046212;28;20545;-77
2021/12/08 11:39:49;;;;;;;10.82;2.90;;;;;;;5.89;75.74;99449.66;5046946;28;20056;-77
2021/12/08 11:42:21;;;;;;;9.32;2.75;;;;;;;5.91;75.89;99461.88;5048191;28;20060;-77
2021/12/08 11:44:54;;;;;;;8.80;2.45;;;;;;;5.98;76.52;99472.13;5044729;28;20024;-77
2021/12/08 11:47:27;;;;;;;12.95;2.80;;;;;;;5.99;75.34;99472.03;5047400;28;20426;-77
2021/12/08 11:49:59;;;;;;;12.55;2.70;;;;;;;6.02;75.35;99476.25;5048487;28;20021;-77
2021/12/08 11:52:29;;;;;;;11.65;2.78;;;;;;;6.02;75.07;99478.91;5049279;28;20049;-77
2021/12/08 11:55:00;;;;;;;13.30;2.85;;;;;;;6.00;75.75;99480.84;5041478;28;20039;-77
2021/12/08 11:57:33;;;;;;;7.43;2.35;;;;;;;5.99;76.03;99492.47;5042263;28;20039;-77
2021/12/08 12:00:08;;;;;;;8.65;2.28;;;;;;;5.96;75.89;99488.22;5045268;28;20021;-77
2021/12/08 12:02:42;;;;;;;5.45;2.13;;;;;;;5.98;75.85;99488.97;5041489;28;20025;-77
2021/12/08 12:05:12;;;;;;;7.68;2.60;;;;;;;6.01;75.57;99487.91;5036486;28;20074;-77
2021/12/08 12:07:39;;;;;;;10.73;2.80;;;;;;;6.01;75.14;99501.22;5047049;28;20032;-77
2021/12/08 12:10:06;;;;;;;7.68;2.20;;;;;;;6.00;75.55;99507.53;5042834;28;20082;-77
2021/12/08 12:12:32;;;;;;;7.18;1.90;;;;;;;5.99;75.60;99513.81;5028449;28;20440;-77
2021/12/08 12:14:57;;;;;;;7.22;2.20;;;;;;;5.98;75.75;99515.66;5028653;28;20025;-77
2021/12/08 12:17:22;;;;;;;15.80;2.88;;;;;;;5.98;74.95;99520.97;5039442;28;20408;-77
2021/12/08 12:19:55;;;;;;;5.45;1.90;;;;;;;5.98;75.42;99528.13;5029839;28;20056;-77
2021/12/08 12:22:38;;;;;;;6.97;2.00;;;;;;;5.97;75.84;99529.94;5029461;28;20404;-78
2021/12/08 12:25:41;;;;;;;8.07;2.35;;;;;;;5.99;76.35;99545.81;5030545;28;20025;-77
2021/12/08 12:28:31;;;;;;;10.07;2.40;;;;;;;5.99;75.62;99543.16;5034424;28;20912;-77
2021/12/08 12:31:20;;;;;;;7.57;2.17;;;;;;;5.96;76.16;99541.56;5047183;28;20170;-77
2021/12/08 12:33:48;;;;;;;7.65;2.45;;;;;;;5.91;76.18;99543.72;5047796;28;20051;-77
2021/12/08 12:36:33;;;;;;;7.30;1.85;;;;;;;5.92;76.57;99551.59;5045764;28;20135;-77